Time;durP1;ratioP1;P1;durP2;ratioP2;P2;SDS_P1;SDS_P2;PMS_P1;PMS_P2;Temp;Humidity;BMP_temperature;BMP_pressure;BME280_temperature;BME280_humidity;BME280_pressure;Samples;Min_cycle;Max_cycle;Signal;HPM_P1;HPM_P2
2022/08/15 00:01:25;;;;;;;8.93;8.32;;;;;;;19.84;nan;94388.56;5031892;28;20195;-66
2022/08/15 00:03:54;;;;;;;8.05;7.45;;;;;;;19.74;nan;94388.53;5032142;28;20203;-65
2022/08/15 00:06:23;;;;;;;7.78;7.28;;;;;;;19.75;nan;94394.50;5031814;28;20226;-66
2022/08/15 00:08:53;;;;;;;7.28;6.68;;;;;;;19.73;nan;94391.22;5031866;28;20285;-66
2022/08/15 00:11:24;;;;;;;7.35;6.72;;;;;;;19.49;nan;94402.50;5031385;28;20289;-67
2022/08/15 00:13:54;;;;;;;8.23;7.40;;;;;;;19.62;nan;94399.78;5031959;28;20274;-67
2022/08/15 00:16:21;;;;;;;6.90;6.40;;;;;;;19.45;nan;94397.72;5032039;28;20211;-66
2022/08/15 00:18:49;;;;;;;7.32;6.72;;;;;;;19.66;nan;94396.03;5031469;28;20254;-67
2022/08/15 00:21:19;;;;;;;7.68;7.03;;;;;;;19.88;nan;94395.94;5031421;28;20203;-67
2022/08/15 00:23:45;;;;;;;7.65;7.15;;;;;;;20.07;nan;94395.28;5031860;28;20200;-67
2022/08/15 00:26:13;;;;;;;7.30;6.60;;;;;;;20.08;nan;94391.75;5031769;28;20200;-67
2022/08/15 00:28:41;;;;;;;7.80;7.32;;;;;;;20.19;nan;94378.00;5031767;28;20223;-68
2022/08/15 00:31:11;;;;;;;7.30;6.90;;;;;;;19.92;nan;94387.03;5031212;28;20207;-64
2022/08/15 00:33:39;;;;;;;7.10;6.45;;;;;;;19.64;nan;94382.44;5031356;28;20199;-64
2022/08/15 00:36:08;;;;;;;7.38;6.97;;;;;;;19.81;nan;94389.63;5030851;28;20200;-67
2022/08/15 00:38:36;;;;;;;6.82;6.32;;;;;;;19.96;nan;94382.44;5031637;28;20210;-67
2022/08/15 00:43:55;;;;;;;7.10;6.70;;;;;;;20.28;nan;94378.06;5031424;28;20210;-67
2022/08/15 00:46:22;;;;;;;7.43;6.78;;;;;;;20.42;nan;94384.69;5031049;28;20204;-66
2022/08/15 00:48:50;;;;;;;7.82;7.10;;;;;;;20.23;nan;94372.47;5031168;28;20641;-67
2022/08/15 00:51:20;;;;;;;7.47;6.72;;;;;;;20.24;nan;94381.84;5031030;28;20203;-67
2022/08/15 00:53:52;;;;;;;7.75;7.15;;;;;;;20.29;nan;94389.19;5031450;28;20204;-67
2022/08/15 00:56:20;;;;;;;8.23;7.53;;;;;;;20.07;nan;94384.94;5031212;28;20203;-68
2022/08/15 00:58:47;;;;;;;7.30;6.68;;;;;;;20.13;nan;94384.47;5031052;28;20326;-67
2022/08/15 01:01:15;;;;;;;7.60;6.90;;;;;;;19.89;nan;94376.13;5031069;28;20203;-67
2022/08/15 01:03:46;;;;;;;7.93;7.32;;;;;;;19.77;nan;94372.00;5030786;28;20199;-67
2022/08/15 01:06:13;;;;;;;9.60;8.73;;;;;;;19.91;nan;94367.34;5031201;28;20226;-67
2022/08/15 01:08:43;;;;;;;8.02;7.53;;;;;;;19.91;nan;94369.09;5030809;28;20223;-68
2022/08/15 01:11:14;;;;;;;10.57;7.78;;;;;;;19.93;nan;94360.31;5030515;28;20235;-66
2022/08/15 01:13:42;;;;;;;8.13;7.57;;;;;;;19.98;nan;94359.94;5031080;28;20287;-67
2022/08/15 01:16:10;;;;;;;8.73;7.97;;;;;;;19.60;nan;94361.25;5030673;28;20204;-67
2022/08/15 01:18:38;;;;;;;9.55;8.85;;;;;;;19.24;nan;94359.00;5031288;28;20192;-66
2022/08/15 01:21:14;;;;;;;9.40;8.80;;;;;;;19.29;nan;94362.03;5030986;28;20203;-67
2022/08/15 01:23:50;;;;;;;9.82;9.02;;;;;;;19.45;nan;94367.59;5031192;28;20832;-67
2022/08/15 01:26:21;;;;;;;9.73;8.98;;;;;;;19.72;nan;94368.97;5031047;28;20286;-67
2022/08/15 01:28:49;;;;;;;8.70;8.13;;;;;;;19.62;nan;94374.84;5031040;28;20233;-67
2022/08/15 01:31:18;;;;;;;9.48;8.70;;;;;;;19.59;nan;94380.22;5030581;28;20740;-67
2022/08/15 01:33:47;;;;;;;8.68;7.88;;;;;;;19.74;nan;94377.38;5030513;28;20273;-67
2022/08/15 01:36:14;;;;;;;9.30;8.70;;;;;;;19.91;nan;94379.41;5030688;28;20196;-67
2022/08/15 01:38:43;;;;;;;10.18;9.30;;;;;;;19.85;nan;94377.31;5030840;28;20685;-67
2022/08/15 01:41:29;;;;;;;9.00;8.30;;;;;;;19.70;nan;94376.81;5030419;28;20196;-67
2022/08/15 01:44:06;;;;;;;9.05;8.45;;;;;;;19.36;nan;94373.47;5030654;28;20257;-67
2022/08/15 01:46:39;;;;;;;10.82;9.80;;;;;;;19.51;nan;94376.66;5033387;28;20261;-68
2022/08/15 01:49:16;;;;;;;9.07;8.35;;;;;;;19.48;nan;94372.53;5034341;28;20660;-67
2022/08/15 01:51:45;;;;;;;9.45;8.65;;;;;;;19.66;nan;94375.41;5034678;28;20203;-67
2022/08/15 01:54:13;;;;;;;8.68;7.97;;;;;;;19.79;nan;94365.78;5034767;28;20254;-67
2022/08/15 01:56:43;;;;;;;8.38;7.78;;;;;;;19.91;nan;94358.78;5034809;28;20274;-66
2022/08/15 01:59:21;;;;;;;8.30;7.72;;;;;;;19.79;nan;94364.94;5033908;28;20196;-66
2022/08/15 02:01:51;;;;;;;7.88;7.35;;;;;;;19.96;nan;94366.97;5034269;28;20277;-64
2022/08/15 02:04:21;;;;;;;8.57;7.90;;;;;;;20.12;nan;94359.59;5034335;28;20196;-66
2022/08/15 02:06:48;;;;;;;8.68;8.18;;;;;;;20.09;nan;94361.63;5034243;28;20223;-67
2022/08/15 02:09:17;;;;;;;9.32;8.63;;;;;;;20.05;nan;94348.16;5034245;28;20223;-66
2022/08/15 02:11:45;;;;;;;8.23;7.72;;;;;;;19.95;nan;94355.03;5033658;28;20602;-66
2022/08/15 02:14:14;;;;;;;8.32;7.82;;;;;;;19.93;nan;94356.91;5034333;28;20333;-67
2022/08/15 02:16:42;;;;;;;9.35;8.65;;;;;;;19.78;nan;94365.88;5034484;28;20589;-68
2022/08/15 02:19:12;;;;;;;9.63;8.93;;;;;;;19.76;nan;94366.00;5034201;28;20203;-67
2022/08/15 02:21:40;;;;;;;9.02;8.43;;;;;;;19.62;nan;94367.09;5033734;28;20693;-67
2022/08/15 02:24:11;;;;;;;9.30;8.70;;;;;;;19.66;nan;94365.09;5033888;28;20280;-67
2022/08/15 02:26:38;;;;;;;10.23;9.43;;;;;;;19.78;nan;94368.47;5033903;28;20670;-67
2022/08/15 02:29:06;;;;;;;9.85;8.80;;;;;;;19.57;nan;94366.66;5033805;28;20231;-67
2022/08/15 02:31:35;;;;;;;9.52;8.73;;;;;;;19.60;nan;94384.44;5034049;28;20261;-67
2022/08/15 02:34:03;;;;;;;9.93;9.13;;;;;;;19.69;nan;94376.00;5033298;28;20634;-67
2022/08/15 02:36:32;;;;;;;9.55;8.90;;;;;;;19.83;nan;94382.59;5033657;28;20700;-68
2022/08/15 02:39:01;;;;;;;10.35;9.43;;;;;;;19.87;nan;94386.56;5033860;28;20196;-67
2022/08/15 02:41:31;;;;;;;10.05;9.35;;;;;;;19.92;nan;94384.44;5034079;28;20254;-67
2022/08/15 02:43:59;;;;;;;9.68;8.95;;;;;;;20.01;nan;94390.63;5033694;28;20270;-67
2022/08/15 02:46:26;;;;;;;10.15;9.45;;;;;;;20.14;nan;94395.59;5035390;28;20239;-67
2022/08/15 02:48:54;;;;;;;10.73;9.75;;;;;;;20.09;nan;94395.97;5034850;28;20269;-67
2022/08/15 02:51:22;;;;;;;10.80;9.95;;;;;;;19.67;nan;94398.50;5034036;28;20203;-67
2022/08/15 02:53:51;;;;;;;11.90;10.75;;;;;;;19.50;nan;94406.75;5034884;28;20253;-67
2022/08/15 02:56:26;;;;;;;11.77;10.80;;;;;;;19.48;nan;94412.94;5034070;28;20670;-66
2022/08/15 02:58:53;;;;;;;12.45;11.13;;;;;;;19.50;nan;94406.75;5034725;28;20195;-67
2022/08/15 03:01:22;;;;;;;12.02;10.95;;;;;;;19.82;nan;94411.91;5034103;28;20200;-63
2022/08/15 03:03:51;;;;;;;12.98;11.98;;;;;;;19.79;nan;94407.03;5033413;28;20188;-66
2022/08/15 03:06:24;;;;;;;11.85;10.90;;;;;;;19.96;nan;94405.66;5033601;28;20222;-66
2022/08/15 03:08:51;;;;;;;12.43;11.30;;;;;;;20.11;nan;94412.16;5033177;28;20220;-66
2022/08/15 03:11:18;;;;;;;12.48;11.48;;;;;;;19.87;nan;94414.13;5032821;28;20239;-66
2022/08/15 03:13:45;;;;;;;13.27;12.23;;;;;;;19.87;nan;94417.53;5033086;28;20204;-66
2022/08/15 03:16:13;;;;;;;14.13;12.63;;;;;;;19.90;nan;94419.03;5033133;28;20206;-66
2022/08/15 03:18:41;;;;;;;14.30;13.00;;;;;;;20.10;nan;94425.16;5033169;28;20200;-67
2022/08/15 03:21:12;;;;;;;13.63;12.48;;;;;;;19.96;nan;94423.72;5032873;28;20200;-66
2022/08/15 03:23:48;;;;;;;14.18;12.98;;;;;;;19.82;nan;94432.53;5032981;28;20290;-66
2022/08/15 03:26:16;;;;;;;13.68;12.18;;;;;;;19.81;nan;94440.38;5032867;28;20199;-65
2022/08/15 03:28:43;;;;;;;13.93;12.70;;;;;;;19.80;nan;94441.31;5032859;28;20223;-66
2022/08/15 03:31:09;;;;;;;14.32;13.13;;;;;;;19.75;nan;94446.06;5032418;28;20206;-66
2022/08/15 03:33:39;;;;;;;14.48;13.00;;;;;;;19.91;nan;94443.88;5032449;28;20235;-66
2022/08/15 03:36:07;;;;;;;13.88;12.68;;;;;;;19.91;nan;94441.31;5032263;28;20277;-66
2022/08/15 03:38:34;;;;;;;14.43;13.10;;;;;;;19.89;nan;94443.19;5032178;28;20200;-66
2022/08/15 03:41:08;;;;;;;15.20;13.90;;;;;;;19.85;nan;94446.94;5032009;28;20200;-66
2022/08/15 03:43:37;;;;;;;13.63;12.52;;;;;;;19.82;nan;94447.19;5032397;28;20586;-65
2022/08/15 03:46:07;;;;;;;16.88;15.10;;;;;;;19.77;nan;94446.75;5032481;28;20204;-65
2022/08/15 03:48:37;;;;;;;14.80;13.50;;;;;;;19.79;nan;94444.88;5032410;28;20223;-65
2022/08/15 03:51:05;;;;;;;15.77;14.27;;;;;;;19.71;nan;94453.22;5032408;28;20204;-66
2022/08/15 03:53:34;;;;;;;15.00;13.70;;;;;;;19.90;nan;94452.56;5031977;28;20747;-65
2022/08/15 03:56:05;;;;;;;16.55;14.82;;;;;;;19.85;nan;94447.75;5032082;28;20624;-67
2022/08/15 03:58:33;;;;;;;16.52;15.02;;;;;;;19.73;nan;94447.94;5031853;28;20242;-64
2022/08/15 04:01:00;;;;;;;17.05;15.45;;;;;;;19.81;nan;94455.84;5031789;28;20195;-65
2022/08/15 04:03:30;;;;;;;17.45;15.75;;;;;;;19.95;nan;94453.00;5031913;28;20200;-66
2022/08/15 04:06:01;;;;;;;17.65;15.95;;;;;;;20.13;nan;94456.69;5031829;28;20227;-65
2022/08/15 04:08:30;;;;;;;16.90;15.20;;;;;;;20.34;nan;94464.44;5031419;28;20223;-65
2022/08/15 04:10:58;;;;;;;24.70;20.48;;;;;;;20.40;nan;94458.84;5031077;28;20297;-66
2022/08/15 04:13:27;;;;;;;21.13;19.10;;;;;;;20.53;nan;94462.06;5031927;28;20235;-65
2022/08/15 04:15:56;;;;;;;18.95;17.15;;;;;;;20.28;nan;94455.47;5031716;28;20257;-67
2022/08/15 04:18:24;;;;;;;18.88;17.10;;;;;;;20.01;nan;94452.53;5031721;28;20673;-67
2022/08/15 04:20:51;;;;;;;17.63;15.90;;;;;;;19.90;nan;94449.97;5031611;28;20200;-67
2022/08/15 04:23:18;;;;;;;16.33;14.85;;;;;;;20.00;nan;94448.31;5032041;28;20207;-67
2022/08/15 04:25:45;;;;;;;18.42;16.50;;;;;;;20.03;nan;94443.72;5031875;28;20199;-66
2022/08/15 04:28:15;;;;;;;18.52;16.73;;;;;;;20.31;nan;94442.28;5031638;28;20199;-66
2022/08/15 04:30:46;;;;;;;22.35;17.40;;;;;;;20.38;nan;94435.72;5031653;28;20204;-66
2022/08/15 04:33:15;;;;;;;31.23;24.65;;;;;;;20.30;nan;94430.34;5031611;28;20257;-67
2022/08/15 04:35:45;;;;;;;24.38;21.83;;;;;;;20.29;nan;94433.84;5031477;28;20295;-66
2022/08/15 04:38:12;;;;;;;20.33;18.15;;;;;;;20.35;nan;94440.28;5031667;28;20203;-67
2022/08/15 04:40:40;;;;;;;22.35;18.20;;;;;;;20.37;nan;94436.66;5031556;28;20290;-67
2022/08/15 04:43:07;;;;;;;20.98;18.40;;;;;;;20.46;nan;94447.19;5031554;28;20199;-66
2022/08/15 04:45:36;;;;;;;24.83;17.90;;;;;;;20.40;nan;94445.94;5031347;28;20203;-66
2022/08/15 04:48:06;;;;;;;19.65;16.40;;;;;;;20.51;nan;94447.66;5031566;28;20200;-66
2022/08/15 04:50:36;;;;;;;21.90;17.58;;;;;;;20.55;nan;94443.84;5030994;28;20303;-66
2022/08/15 04:53:04;;;;;;;20.50;17.35;;;;;;;20.43;nan;94444.88;5030785;28;20253;-66
2022/08/15 04:55:31;;;;;;;21.75;19.50;;;;;;;20.56;nan;94453.22;5030997;28;20203;-65
2022/08/15 04:57:59;;;;;;;21.27;19.20;;;;;;;20.63;nan;94449.19;5031271;28;20211;-67
2022/08/15 05:00:29;;;;;;;24.70;19.25;;;;;;;20.64;nan;94450.84;5030772;28;20196;-65
2022/08/15 05:03:01;;;;;;;21.40;19.35;;;;;;;20.68;nan;94454.81;5031029;28;20205;-66
2022/08/15 05:05:31;;;;;;;22.48;20.13;;;;;;;20.76;nan;94443.84;5030676;28;20270;-66
2022/08/15 05:07:58;;;;;;;23.55;19.80;;;;;;;20.75;nan;94448.19;5031300;28;20188;-67
2022/08/15 05:10:25;;;;;;;21.80;19.13;;;;;;;21.16;nan;94451.66;5030385;28;20230;-66
2022/08/15 05:12:52;;;;;;;22.00;19.80;;;;;;;21.47;nan;94445.53;5030830;28;20636;-66
2022/08/15 05:15:21;;;;;;;22.80;20.45;;;;;;;21.53;nan;94446.78;5030653;28;20640;-66
2022/08/15 05:17:48;;;;;;;22.08;19.85;;;;;;;21.50;nan;94440.09;5030791;28;20204;-67
2022/08/15 05:20:16;;;;;;;21.45;19.17;;;;;;;21.49;nan;94442.81;5030167;28;20203;-66
2022/08/15 05:22:57;;;;;;;22.95;18.60;;;;;;;21.38;nan;94446.31;5030808;28;20234;-67
2022/08/15 05:25:24;;;;;;;23.05;20.65;;;;;;;21.41;nan;94440.06;5030416;28;20200;-66
2022/08/15 05:27:52;;;;;;;22.73;20.05;;;;;;;21.59;nan;94441.88;5030580;28;20204;-66
2022/08/15 05:30:20;;;;;;;23.05;19.45;;;;;;;21.24;nan;94439.75;5030147;28;20234;-66
2022/08/15 05:32:47;;;;;;;22.08;19.48;;;;;;;21.33;nan;94438.13;5030568;28;20196;-67
2022/08/15 05:35:15;;;;;;;22.60;20.40;;;;;;;21.36;nan;94445.63;5030618;28;20205;-67
2022/08/15 05:37:44;;;;;;;22.95;20.45;;;;;;;21.48;nan;94442.00;5030831;28;20291;-67
2022/08/15 05:40:13;;;;;;;23.13;19.15;;;;;;;21.93;nan;94441.53;5030520;28;20204;-67
2022/08/15 05:42:50;;;;;;;22.33;19.92;;;;;;;22.09;nan;94453.94;5030684;28;20257;-65
2022/08/15 05:45:27;;;;;;;20.55;18.45;;;;;;;22.08;nan;94453.13;5030391;28;20253;-66
2022/08/15 05:48:02;;;;;;;23.33;20.30;;;;;;;21.97;nan;94453.25;5030626;28;20203;-65
2022/08/15 05:50:32;;;;;;;21.40;19.23;;;;;;;21.86;nan;94458.53;5030398;28;20231;-65
2022/08/15 05:53:08;;;;;;;21.52;19.23;;;;;;;21.73;nan;94445.88;5030591;28;20200;-66
2022/08/15 05:55:41;;;;;;;22.25;19.23;;;;;;;21.60;nan;94451.25;5030496;28;20338;-67
2022/08/15 05:58:31;;;;;;;23.95;21.20;;;;;;;21.65;nan;94459.44;5030567;28;20195;-67
2022/08/15 06:01:04;;;;;;;21.08;18.45;;;;;;;21.64;nan;94465.56;5030608;28;20200;-66
2022/08/15 06:03:32;;;;;;;21.42;19.15;;;;;;;21.55;nan;94455.19;5030435;28;20638;-67
2022/08/15 06:06:07;;;;;;;21.67;18.98;;;;;;;21.32;nan;94442.47;5030095;28;20219;-67
2022/08/15 06:08:37;;;;;;;22.33;19.85;;;;;;;21.11;nan;94452.03;5030687;28;20253;-68
2022/08/15 06:11:11;;;;;;;21.83;19.35;;;;;;;21.01;nan;94459.75;5030310;28;20235;-67
2022/08/15 06:13:42;;;;;;;23.17;20.48;;;;;;;20.93;nan;94456.97;5030379;28;20682;-67
2022/08/15 06:16:18;;;;;;;23.42;21.02;;;;;;;21.03;nan;94450.09;5030715;28;20204;-66
2022/08/15 06:18:48;;;;;;;23.77;20.88;;;;;;;21.19;nan;94446.22;5031122;28;20203;-66
2022/08/15 06:21:33;;;;;;;25.30;21.25;;;;;;;21.60;nan;94445.28;5031560;28;20689;-65
2022/08/15 06:24:17;;;;;;;24.58;21.52;;;;;;;21.50;nan;94452.22;5031343;28;20257;-66
2022/08/15 06:26:53;;;;;;;23.98;21.40;;;;;;;21.28;nan;94450.66;5031065;28;20196;-67
2022/08/15 06:29:41;;;;;;;24.75;21.88;;;;;;;21.21;nan;94446.94;5030676;28;20823;-67
2022/08/15 06:32:12;;;;;;;26.30;22.20;;;;;;;21.39;nan;94453.13;5033097;28;20199;-66
2022/08/15 06:34:48;;;;;;;24.88;22.38;;;;;;;21.60;nan;94456.44;5035466;28;20682;-66
2022/08/15 06:37:25;;;;;;;29.42;23.52;;;;;;;21.77;nan;94451.59;5034810;28;20199;-65
2022/08/15 06:40:06;;;;;;;36.67;25.33;;;;;;;21.67;nan;94456.72;5034095;28;20230;-66
2022/08/15 06:42:37;;;;;;;26.10;22.38;;;;;;;21.64;nan;94457.81;5034250;28;20211;-66
2022/08/15 06:45:10;;;;;;;26.95;22.63;;;;;;;21.67;nan;94465.31;5035145;28;20735;-67
2022/08/15 06:47:38;;;;;;;28.52;25.63;;;;;;;21.55;nan;94458.59;5034603;28;20200;-66
2022/08/15 06:50:16;;;;;;;31.08;24.85;;;;;;;21.70;nan;94461.66;5035792;28;20315;-65
2022/08/15 06:52:50;;;;;;;26.83;23.77;;;;;;;21.57;nan;94467.03;5034290;28;20200;-68
2022/08/15 06:55:20;;;;;;;25.25;22.58;;;;;;;21.34;nan;94468.19;5034087;28;20330;-67
2022/08/15 06:57:58;;;;;;;29.40;24.33;;;;;;;21.36;nan;94467.13;5034653;28;20258;-67
2022/08/15 07:00:35;;;;;;;25.35;22.73;;;;;;;21.43;nan;94470.00;5034457;28;20202;-67
2022/08/15 07:03:12;;;;;;;28.50;23.33;;;;;;;21.29;nan;94472.94;5034651;28;20206;-67
2022/08/15 07:05:46;;;;;;;26.80;23.98;;;;;;;21.38;nan;94472.97;5034206;28;20225;-67
2022/08/15 07:08:20;;;;;;;26.48;23.58;;;;;;;21.62;nan;94472.66;5034310;28;20262;-66
2022/08/15 07:10:51;;;;;;;26.42;21.88;;;;;;;21.94;nan;94479.38;5033102;28;20239;-67
2022/08/15 07:13:23;;;;;;;24.58;21.58;;;;;;;22.14;nan;94481.06;5033988;28;20200;-67
2022/08/15 07:15:56;;;;;;;24.88;21.90;;;;;;;22.16;nan;94468.81;5034581;28;20199;-68
2022/08/15 07:18:34;;;;;;;29.15;22.88;;;;;;;22.22;nan;94473.44;5033977;28;20203;-68
2022/08/15 07:21:03;;;;;;;31.27;22.95;;;;;;;22.17;nan;94470.44;5033267;28;20246;-67
2022/08/15 07:23:32;;;;;;;25.77;23.08;;;;;;;22.01;nan;94472.75;5034456;28;20451;-67
2022/08/15 07:26:03;;;;;;;28.50;22.75;;;;;;;22.27;nan;94468.66;5034485;28;20633;-69
2022/08/15 07:28:34;;;;;;;24.73;22.05;;;;;;;22.38;nan;94470.31;5033739;28;20195;-66
2022/08/15 07:31:10;;;;;;;27.38;23.20;;;;;;;22.65;nan;94469.59;5033614;28;20263;-67
2022/08/15 07:33:41;;;;;;;26.30;23.55;;;;;;;22.96;nan;94473.66;5033458;28;20699;-68
2022/08/15 07:36:17;;;;;;;23.08;20.77;;;;;;;23.33;nan;94475.44;5033313;28;20585;-67
2022/08/15 07:38:45;;;;;;;24.15;21.83;;;;;;;23.80;nan;94473.59;5033472;28;20201;-68
2022/08/15 07:41:22;;;;;;;28.15;23.48;;;;;;;24.29;nan;94474.94;5033300;28;20246;-67
2022/08/15 07:43:51;;;;;;;27.45;21.55;;;;;;;24.64;nan;94473.28;5032961;28;20858;-68
2022/08/15 07:46:22;;;;;;;24.70;22.30;;;;;;;24.51;nan;94478.03;5033261;28;20200;-66
2022/08/15 07:48:58;;;;;;;23.10;20.95;;;;;;;24.46;nan;94482.88;5034816;28;20623;-67
2022/08/15 07:51:27;;;;;;;23.42;21.10;;;;;;;24.64;nan;94483.69;5033659;28;20345;-67
2022/08/15 07:54:00;;;;;;;23.65;21.05;;;;;;;24.95;nan;94482.31;5032875;28;20732;-67
2022/08/15 07:56:29;;;;;;;22.42;20.33;;;;;;;25.27;nan;94480.84;5034495;28;20687;-67
2022/08/15 07:59:13;;;;;;;25.00;20.33;;;;;;;25.66;nan;94471.66;5033804;28;20204;-67
2022/08/15 08:01:40;;;;;;;24.35;21.00;;;;;;;25.35;nan;94475.72;5036348;28;20196;-67
2022/08/15 08:04:10;;;;;;;23.92;21.50;;;;;;;24.97;nan;94475.19;5036100;28;20199;-65
2022/08/15 08:06:42;;;;;;;21.60;19.63;;;;;;;24.58;nan;94486.88;5036921;28;20327;-65
2022/08/15 08:09:20;;;;;;;24.42;20.73;;;;;;;24.24;nan;94487.56;5032740;28;20204;-66
2022/08/15 08:11:50;;;;;;;25.83;22.52;;;;;;;24.04;nan;94480.81;5031852;28;20301;-67
2022/08/15 08:14:35;;;;;;;25.33;22.63;;;;;;;24.08;nan;94493.38;5031679;28;20203;-66
2022/08/15 08:17:09;;;;;;;22.98;20.58;;;;;;;24.29;nan;94489.69;5032229;28;20204;-67
2022/08/15 08:19:42;;;;;;;22.48;20.17;;;;;;;24.52;nan;94487.47;5031647;28;20196;-66
2022/08/15 08:22:18;;;;;;;22.55;20.35;;;;;;;24.64;nan;94494.06;5031537;28;20635;-66
2022/08/15 08:24:54;;;;;;;21.40;19.20;;;;;;;24.87;nan;94486.59;5031413;28;20685;-68
2022/08/15 08:27:35;;;;;;;19.45;17.55;;;;;;;24.99;nan;94488.03;5031840;28;20634;-67
2022/08/15 08:30:08;;;;;;;19.33;17.52;;;;;;;25.39;nan;94480.44;5031366;28;20219;-67
2022/08/15 08:32:44;;;;;;;20.10;18.17;;;;;;;25.59;nan;94483.63;5031708;28;20257;-67
2022/08/15 08:35:21;;;;;;;19.33;17.33;;;;;;;25.56;nan;94481.34;5031516;28;20285;-66
2022/08/15 08:37:58;;;;;;;19.17;17.27;;;;;;;25.01;nan;94481.69;5031513;28;20199;-67
2022/08/15 08:43:28;;;;;;;19.95;18.13;;;;;;;24.28;nan;94482.88;5031327;28;20254;-66
2022/08/15 08:46:05;;;;;;;20.58;18.77;;;;;;;24.23;nan;94491.09;5031734;28;20203;-67
2022/08/15 08:48:43;;;;;;;21.98;19.67;;;;;;;24.72;nan;94486.34;5031318;28;20281;-66
2022/08/15 08:51:21;;;;;;;21.17;19.08;;;;;;;25.09;nan;94473.94;5030710;28;20224;-66
2022/08/15 08:53:56;;;;;;;21.77;19.48;;;;;;;25.18;nan;94471.41;5030885;28;20265;-67
2022/08/15 08:56:30;;;;;;;21.95;19.80;;;;;;;25.36;nan;94470.34;5031213;28;20289;-67
2022/08/15 08:59:03;;;;;;;24.02;20.25;;;;;;;25.59;nan;94465.41;5030824;28;20203;-67
2022/08/15 09:01:34;;;;;;;21.85;19.48;;;;;;;25.89;nan;94460.66;5030831;28;20665;-67
2022/08/15 09:04:04;;;;;;;22.27;19.50;;;;;;;25.92;nan;94460.34;5031078;28;20286;-67
2022/08/15 09:06:37;;;;;;;22.00;19.80;;;;;;;26.11;nan;94465.28;5031091;28;20265;-68
2022/08/15 09:09:08;;;;;;;21.33;19.23;;;;;;;26.06;nan;94462.31;5030803;28;20261;-67
2022/08/15 09:11:41;;;;;;;21.33;19.23;;;;;;;26.05;nan;94455.47;5030678;28;20239;-68
2022/08/15 09:14:17;;;;;;;18.70;17.10;;;;;;;25.91;nan;94458.72;5030892;28;20259;-68
2022/08/15 09:16:47;;;;;;;20.15;18.33;;;;;;;26.06;nan;94442.31;5030737;28;20237;-66
2022/08/15 09:19:21;;;;;;;18.38;16.77;;;;;;;26.18;nan;94437.63;5030667;28;20254;-66
2022/08/15 09:21:49;;;;;;;19.75;17.23;;;;;;;26.12;nan;94440.84;5030937;28;20261;-67
2022/08/15 09:24:20;;;;;;;19.95;17.98;;;;;;;26.38;nan;94448.56;5030742;28;20583;-67
2022/08/15 09:26:56;;;;;;;19.67;17.73;;;;;;;26.57;nan;94450.03;5030690;28;20656;-67
2022/08/15 09:29:27;;;;;;;18.92;17.25;;;;;;;26.40;nan;94449.22;5030339;28;20253;-67
2022/08/15 09:32:08;;;;;;;18.50;17.00;;;;;;;26.10;nan;94453.22;5030859;28;20227;-67
2022/08/15 09:35:00;;;;;;;18.63;16.75;;;;;;;25.73;nan;94453.63;5030774;28;20210;-67
2022/08/15 09:37:41;;;;;;;19.25;17.48;;;;;;;26.04;nan;94448.66;5030585;28;20196;-67
2022/08/15 09:40:38;;;;;;;18.70;17.13;;;;;;;26.47;nan;94444.19;5030493;28;20200;-67
2022/08/15 09:43:30;;;;;;;18.88;17.08;;;;;;;26.93;nan;94446.09;5027082;28;20203;-68
2022/08/15 09:46:17;;;;;;;17.70;16.00;;;;;;;26.90;nan;94438.59;4990747;28;20269;-68
2022/08/15 09:49:05;;;;;;;17.70;16.20;;;;;;;27.05;nan;94439.56;5030581;28;20213;-68
2022/08/15 09:51:57;;;;;;;16.80;15.10;;;;;;;26.90;nan;94443.81;5030428;28;20587;-67
2022/08/15 09:54:26;;;;;;;16.05;14.75;;;;;;;27.04;nan;94442.34;5030548;28;20200;-67
2022/08/15 09:57:22;;;;;;;16.55;15.10;;;;;;;26.98;nan;94430.78;5030589;28;20257;-67
2022/08/15 09:59:52;;;;;;;16.25;14.80;;;;;;;26.70;nan;94434.72;5030261;28;20254;-67
2022/08/15 10:02:23;;;;;;;15.40;13.90;;;;;;;26.73;nan;94426.53;5029951;28;20246;-68
2022/08/15 10:05:17;;;;;;;15.60;14.30;;;;;;;26.89;nan;94433.56;5030000;28;20204;-68
2022/08/15 10:07:48;;;;;;;15.18;13.93;;;;;;;26.94;nan;94432.09;5033277;28;20253;-68
2022/08/15 10:10:19;;;;;;;14.27;13.00;;;;;;;26.81;nan;94434.38;5033961;28;20724;-67
2022/08/15 10:13:13;;;;;;;13.32;12.13;;;;;;;26.67;nan;94430.66;5033874;28;20287;-68
2022/08/15 10:15:43;;;;;;;11.73;10.85;;;;;;;26.47;nan;94431.16;5034306;28;20227;-67
2022/08/15 10:18:10;;;;;;;13.55;12.45;;;;;;;26.67;nan;94425.44;5034445;28;20195;-68
2022/08/15 10:20:53;;;;;;;13.32;12.18;;;;;;;26.87;nan;94418.06;5033968;28;20669;-68
2022/08/15 10:23:31;;;;;;;12.65;11.55;;;;;;;27.10;nan;94426.03;5033746;28;20204;-67
2022/08/15 10:26:25;;;;;;;13.30;12.15;;;;;;;27.33;nan;94420.91;5034154;28;20195;-67
2022/08/15 10:29:22;;;;;;;13.23;12.02;;;;;;;27.52;nan;94417.88;5034194;28;20257;-65
2022/08/15 10:31:53;;;;;;;12.90;11.88;;;;;;;27.47;nan;94417.56;5033853;28;20228;-67
2022/08/15 10:34:37;;;;;;;13.85;12.32;;;;;;;27.49;nan;94423.44;5033852;28;20200;-67
2022/08/15 10:37:19;;;;;;;12.93;11.95;;;;;;;27.53;nan;94422.13;5033763;28;20630;-67
2022/08/15 10:40:02;;;;;;;13.57;12.57;;;;;;;27.39;nan;94415.03;5033702;28;20258;-67
2022/08/15 10:42:39;;;;;;;12.60;11.65;;;;;;;27.00;nan;94415.78;5033383;28;20234;-66
2022/08/15 10:45:16;;;;;;;12.90;11.90;;;;;;;27.05;nan;94408.28;5033686;28;20277;-67
2022/08/15 10:47:56;;;;;;;13.00;12.00;;;;;;;26.98;nan;94401.28;5033736;28;20206;-66
2022/08/15 10:50:27;;;;;;;14.88;12.25;;;;;;;26.95;nan;94402.44;5033640;28;20280;-66
2022/08/15 10:53:07;;;;;;;13.05;12.05;;;;;;;27.17;nan;94400.09;5033283;28;20203;-67
2022/08/15 10:55:36;;;;;;;15.80;12.07;;;;;;;27.14;nan;94411.69;5033439;28;20563;-67
2022/08/15 10:58:13;;;;;;;12.75;11.85;;;;;;;27.24;nan;94406.25;5033745;28;20204;-68
2022/08/15 11:00:44;;;;;;;11.93;10.80;;;;;;;27.35;nan;94404.09;5033217;28;20199;-67
2022/08/15 11:03:26;;;;;;;13.20;12.10;;;;;;;27.48;nan;94400.94;5033752;28;20231;-66
2022/08/15 11:05:58;;;;;;;11.27;10.25;;;;;;;27.50;nan;94396.34;5032881;28;20247;-66
2022/08/15 11:08:26;;;;;;;11.65;10.85;;;;;;;27.38;nan;94402.94;5033707;28;20204;-67
2022/08/15 11:11:00;;;;;;;11.68;10.88;;;;;;;27.57;nan;94399.91;5033128;28;20235;-67
2022/08/15 11:13:31;;;;;;;12.20;11.18;;;;;;;27.61;nan;94403.84;5033392;28;20266;-67
2022/08/15 11:16:07;;;;;;;12.23;11.18;;;;;;;27.49;nan;94392.13;5033153;28;20204;-69
2022/08/15 11:18:38;;;;;;;11.15;10.35;;;;;;;27.43;nan;94395.44;5031744;28;20203;-69
2022/08/15 11:21:19;;;;;;;12.23;10.77;;;;;;;27.44;nan;94402.28;5032570;28;20290;-66
2022/08/15 11:23:55;;;;;;;10.95;10.13;;;;;;;27.57;nan;94401.72;5033099;28;20242;-67
2022/08/15 11:26:25;;;;;;;10.25;9.55;;;;;;;27.52;nan;94399.63;5032955;28;20202;-68
2022/08/15 11:29:18;;;;;;;11.73;10.60;;;;;;;27.23;nan;94399.41;5032958;28;20735;-68
2022/08/15 11:31:52;;;;;;;11.52;10.82;;;;;;;27.29;nan;94393.53;5032911;28;20486;-69
2022/08/15 11:34:22;;;;;;;12.52;11.60;;;;;;;27.32;nan;94388.78;5032567;28;20238;-66
2022/08/15 11:36:50;;;;;;;11.02;10.23;;;;;;;27.43;nan;94398.03;5032639;28;20206;-66
2022/08/15 11:39:19;;;;;;;11.43;10.55;;;;;;;27.37;nan;94396.09;5032560;28;20203;-68
2022/08/15 11:41:51;;;;;;;11.65;10.77;;;;;;;27.08;nan;94386.25;5032481;28;20625;-67
2022/08/15 11:44:19;;;;;;;10.48;9.77;;;;;;;26.97;nan;94379.63;5032817;28;20283;-66
2022/08/15 11:46:47;;;;;;;11.82;10.40;;;;;;;26.99;nan;94376.81;5032647;28;20199;-67
2022/08/15 11:49:24;;;;;;;9.65;9.07;;;;;;;26.85;nan;94380.09;5032418;28;20248;-68
2022/08/15 11:51:51;;;;;;;9.75;9.15;;;;;;;26.97;nan;94379.63;5032377;28;20280;-67
2022/08/15 11:54:24;;;;;;;10.77;9.98;;;;;;;27.25;nan;94382.59;5032147;28;20206;-68
2022/08/15 11:56:53;;;;;;;10.77;9.73;;;;;;;27.46;nan;94384.66;5032260;28;20685;-67
2022/08/15 11:59:24;;;;;;;11.02;10.05;;;;;;;27.65;nan;94384.25;5032354;28;20283;-65
2022/08/15 12:02:14;;;;;;;9.80;9.20;;;;;;;27.59;nan;94384.13;5031693;28;20200;-67
2022/08/15 12:04:45;;;;;;;10.07;9.38;;;;;;;27.50;nan;94382.50;5031874;28;20640;-66
2022/08/15 12:07:17;;;;;;;9.07;8.48;;;;;;;27.50;nan;94379.88;5032505;28;20207;-67